Time;durP1;ratioP1;P1;durP2;ratioP2;P2;SDS_P1;SDS_P2;PMS_P1;PMS_P2;Temp;Humidity;BMP_temperature;BMP_pressure;BME280_temperature;BME280_humidity;BME280_pressure;Samples;Min_cycle;Max_cycle;Signal;HPM_P1;HPM_P2
2021/01/06 00:02:21;;;;;;;12.63;10.03;;;3.90;87.70;;;;;;4905462;28;87061;-78
2021/01/06 00:04:47;;;;;;;14.90;9.17;;;3.90;87.60;;;;;;4904162;28;88076;-78
2021/01/06 00:07:13;;;;;;;13.97;9.73;;;3.90;87.40;;;;;;4888228;28;88227;-78
2021/01/06 00:09:39;;;;;;;14.17;9.93;;;4.00;87.30;;;;;;4922807;28;87177;-78
2021/01/06 00:12:06;;;;;;;15.23;8.63;;;4.00;87.20;;;;;;4888544;28;92185;-78
2021/01/06 00:14:32;;;;;;;14.13;8.47;;;4.00;87.20;;;;;;4904867;28;90054;-79
2021/01/06 00:16:58;;;;;;;12.43;8.77;;;4.00;87.20;;;;;;4904263;28;87392;-78
2021/01/06 00:19:24;;;;;;;11.60;8.40;;;4.00;87.20;;;;;;4889043;28;88264;-79
2021/01/06 00:21:51;;;;;;;13.70;9.37;;;4.00;87.30;;;;;;4921620;28;88213;-78
2021/01/06 00:24:17;;;;;;;13.43;10.23;;;4.00;87.00;;;;;;4905793;28;87542;-78
2021/01/06 00:26:44;;;;;;;16.00;11.87;;;4.00;87.10;;;;;;4899475;28;86932;-78
2021/01/06 00:29:11;;;;;;;11.60;9.47;;;4.00;87.30;;;;;;4904071;28;88365;-79
2021/01/06 00:31:44;;;;;;;13.60;9.37;;;3.90;87.00;;;;;;4904380;28;92498;-79
2021/01/06 00:34:11;;;;;;;12.77;8.73;;;4.00;87.10;;;;;;4922619;28;89209;-78
2021/01/06 00:36:37;;;;;;;12.27;8.73;;;4.00;87.20;;;;;;4921019;28;87660;-78
2021/01/06 00:39:05;;;;;;;10.67;8.00;;;3.90;87.00;;;;;;4920262;28;87927;-78
2021/01/06 00:41:34;;;;;;;12.47;8.73;;;4.00;87.00;;;;;;4904927;28;90272;-78
2021/01/06 00:44:01;;;;;;;12.33;8.00;;;3.90;87.10;;;;;;4918836;28;91375;-78
2021/01/06 00:46:32;;;;;;;13.37;8.43;;;3.90;87.20;;;;;;4920399;28;87028;-79
2021/01/06 00:49:00;;;;;;;13.23;8.88;;;3.90;87.20;;;;;;4903769;28;87973;-78
2021/01/06 00:51:27;;;;;;;14.47;9.37;;;3.80;87.50;;;;;;4921229;28;88750;-78
2021/01/06 00:53:53;;;;;;;10.80;8.53;;;3.70;87.80;;;;;;4904339;28;90900;-78
2021/01/06 00:56:30;;;;;;;13.43;8.63;;;3.80;88.10;;;;;;4920611;28;88029;-78
2021/01/06 00:58:57;;;;;;;12.40;8.50;;;3.80;88.10;;;;;;4904937;28;88025;-78
2021/01/06 01:01:25;;;;;;;12.03;8.63;;;3.80;88.00;;;;;;4924401;28;91592;-79
2021/01/06 01:03:52;;;;;;;12.30;8.63;;;3.80;87.90;;;;;;4907612;28;90823;-78
2021/01/06 01:06:28;;;;;;;11.73;9.00;;;3.90;87.80;;;;;;4924186;28;87367;-78
2021/01/06 01:08:59;;;;;;;12.03;9.70;;;3.90;87.60;;;;;;4922746;28;87962;-78
2021/01/06 01:11:26;;;;;;;13.43;9.90;;;4.00;87.40;;;;;;4907488;28;91867;-79
2021/01/06 01:13:54;;;;;;;15.63;9.77;;;4.00;87.30;;;;;;4923451;28;88093;-78
2021/01/06 01:16:22;;;;;;;13.97;9.63;;;4.00;87.10;;;;;;4923738;28;87371;-79
2021/01/06 01:18:48;;;;;;;16.57;11.27;;;4.10;87.00;;;;;;4924479;28;87396;-78
2021/01/06 01:21:21;;;;;;;17.33;11.30;;;4.10;87.00;;;;;;4895833;28;92931;-78
2021/01/06 01:23:47;;;;;;;15.97;10.47;;;4.00;87.10;;;;;;4886879;28;92150;-78
2021/01/06 01:26:13;;;;;;;17.27;11.00;;;4.10;87.30;;;;;;4903356;28;87298;-78
2021/01/06 01:28:38;;;;;;;17.87;10.20;;;4.00;87.20;;;;;;4887717;28;87136;-78
2021/01/06 01:31:05;;;;;;;15.37;10.10;;;4.00;87.40;;;;;;4902638;28;91595;-80
2021/01/06 01:33:31;;;;;;;12.90;9.37;;;4.10;87.50;;;;;;4887356;28;91318;-79
2021/01/06 01:36:00;;;;;;;16.70;10.53;;;4.00;87.40;;;;;;4871679;28;87066;-78
2021/01/06 01:38:29;;;;;;;14.87;9.17;;;4.10;87.30;;;;;;4904959;28;86498;-79
2021/01/06 01:41:19;;;;;;;14.67;8.63;;;4.10;87.20;;;;;;4887324;28;91557;-78
2021/01/06 01:43:45;;;;;;;12.10;8.23;;;4.10;87.30;;;;;;4888031;28;90206;-78
2021/01/06 01:46:23;;;;;;;11.17;8.30;;;4.00;87.40;;;;;;4886405;28;87897;-78
2021/01/06 01:48:50;;;;;;;11.07;8.00;;;4.10;87.40;;;;;;4887420;28;87508;-78
2021/01/06 01:51:38;;;;;;;12.30;8.33;;;4.10;87.30;;;;;;4888288;28;88598;-78
2021/01/06 01:54:08;;;;;;;13.93;8.83;;;4.10;87.50;;;;;;4886993;28;89452;-79
2021/01/06 01:57:14;;;;;;;11.07;7.90;;;4.10;87.50;;;;;;4872351;28;86947;-79
2021/01/06 01:59:46;;;;;;;13.13;8.87;;;4.10;87.60;;;;;;4864693;29;86837;-79
2021/01/06 02:02:34;;;;;;;12.55;8.38;;;4.10;87.50;;;;;;4864649;29;88239;-78
2021/01/06 02:05:08;;;;;;;11.70;8.70;;;4.10;87.40;;;;;;4847758;29;86766;-78
2021/01/06 02:07:38;;;;;;;12.87;8.93;;;4.20;87.40;;;;;;4849753;29;86994;-78
2021/01/06 02:10:21;;;;;;;13.13;9.00;;;4.20;87.20;;;;;;4848812;29;87029;-78
2021/01/06 02:12:51;;;;;;;14.67;9.07;;;4.20;87.10;;;;;;4864523;29;89331;-78
2021/01/06 02:15:26;;;;;;;11.73;8.17;;;4.20;87.00;;;;;;4849374;29;91258;-79
2021/01/06 02:17:51;;;;;;;12.60;7.67;;;4.10;87.30;;;;;;4848593;29;88164;-78
2021/01/06 02:20:23;;;;;;;10.83;7.80;;;4.00;87.40;;;;;;4849616;29;87220;-78
2021/01/06 02:22:50;;;;;;;12.68;8.93;;;4.00;87.60;;;;;;4833475;29;92326;-78
2021/01/06 02:25:16;;;;;;;11.43;7.63;;;4.00;87.80;;;;;;4864772;29;88971;-78
2021/01/06 02:27:43;;;;;;;12.73;8.53;;;4.00;87.90;;;;;;4834480;29;87259;-79
2021/01/06 02:30:11;;;;;;;11.07;7.87;;;4.00;87.70;;;;;;4864874;28;88148;-78
2021/01/06 02:32:37;;;;;;;9.53;8.20;;;4.10;87.60;;;;;;4872116;28;92044;-78
2021/01/06 02:35:06;;;;;;;13.43;9.10;;;4.10;87.40;;;;;;4887957;28;86962;-78
2021/01/06 02:37:32;;;;;;;10.83;7.87;;;4.10;87.30;;;;;;4923510;28;88001;-79
2021/01/06 02:39:58;;;;;;;13.73;8.03;;;4.10;87.20;;;;;;4924760;28;86884;-78
2021/01/06 02:42:25;;;;;;;10.07;7.67;;;4.10;87.20;;;;;;4892136;28;91206;-79
2021/01/06 02:44:51;;;;;;;12.07;8.53;;;4.10;87.00;;;;;;4907884;28;91358;-78
2021/01/06 02:47:18;;;;;;;12.50;9.07;;;4.20;87.00;;;;;;4908527;28;87085;-79
2021/01/06 02:49:45;;;;;;;12.53;8.90;;;4.20;86.80;;;;;;4909279;28;87000;-78
2021/01/06 02:52:24;;;;;;;12.03;8.20;;;4.20;86.60;;;;;;4908231;28;88374;-78
2021/01/06 02:54:51;;;;;;;11.47;8.23;;;4.20;86.70;;;;;;4894042;28;91541;-79
2021/01/06 02:57:17;;;;;;;12.53;9.37;;;4.20;86.50;;;;;;4896408;28;86952;-79
2021/01/06 02:59:48;;;;;;;10.80;8.47;;;4.30;86.40;;;;;;4913918;28;88111;-79
2021/01/06 03:02:22;;;;;;;13.50;9.13;;;4.30;86.50;;;;;;4908400;28;91374;-79
2021/01/06 03:05:22;;;;;;;12.70;8.60;;;4.30;86.40;;;;;;4890592;28;91832;-79
2021/01/06 03:07:49;;;;;;;11.43;8.17;;;4.30;86.20;;;;;;4907098;28;87433;-79
2021/01/06 03:10:18;;;;;;;12.87;8.57;;;4.30;86.30;;;;;;4890341;28;87616;-78
2021/01/06 03:12:46;;;;;;;11.87;8.17;;;4.30;86.40;;;;;;4891114;28;91829;-78
2021/01/06 03:15:14;;;;;;;12.67;7.87;;;4.20;86.20;;;;;;4890421;28;91383;-78
2021/01/06 03:17:40;;;;;;;12.07;8.17;;;4.20;86.10;;;;;;4908937;28;86987;-80
2021/01/06 03:20:12;;;;;;;11.10;7.73;;;4.20;86.20;;;;;;4909571;28;86371;-78
2021/01/06 03:22:40;;;;;;;11.65;7.72;;;4.20;86.00;;;;;;4923326;28;87995;-79
2021/01/06 03:25:11;;;;;;;12.37;7.07;;;4.20;86.10;;;;;;4901388;28;91368;-78
2021/01/06 03:27:39;;;;;;;11.68;6.85;;;4.20;86.00;;;;;;4922315;28;87845;-79
2021/01/06 03:30:08;;;;;;;9.30;6.27;;;4.20;86.00;;;;;;4922423;28;87137;-78
2021/01/06 03:32:56;;;;;;;9.83;6.97;;;4.30;86.10;;;;;;4889372;28;92000;-78
2021/01/06 03:35:42;;;;;;;12.07;7.53;;;4.20;86.00;;;;;;4923242;28;88124;-78
2021/01/06 03:38:32;;;;;;;10.77;7.73;;;4.30;86.10;;;;;;4905262;28;87128;-78
2021/01/06 03:40:59;;;;;;;9.73;7.10;;;4.30;86.20;;;;;;4884170;28;88219;-78
2021/01/06 03:43:29;;;;;;;11.03;7.40;;;4.30;86.00;;;;;;4922822;28;87081;-78
2021/01/06 03:46:01;;;;;;;12.30;7.07;;;4.30;86.10;;;;;;4923342;28;87845;-79
2021/01/06 03:49:12;;;;;;;10.88;7.47;;;4.20;85.90;;;;;;4889745;28;86967;-78
2021/01/06 03:51:56;;;;;;;10.10;7.47;;;4.30;86.00;;;;;;4889718;28;87395;-79
2021/01/06 03:54:33;;;;;;;12.73;6.90;;;4.30;86.10;;;;;;4904578;28;93246;-78
2021/01/06 03:57:01;;;;;;;9.30;6.33;;;4.30;85.90;;;;;;4922266;28;88370;-78
2021/01/06 03:59:32;;;;;;;9.03;6.90;;;4.30;85.90;;;;;;4889474;28;86887;-78
2021/01/06 04:02:20;;;;;;;9.07;6.80;;;4.30;86.00;;;;;;4922837;28;87132;-79
2021/01/06 04:05:01;;;;;;;9.13;6.40;;;4.30;86.10;;;;;;4905301;28;92021;-79
2021/01/06 04:07:43;;;;;;;9.20;6.20;;;4.30;86.00;;;;;;4889515;28;90363;-78
2021/01/06 04:10:14;;;;;;;9.83;6.10;;;4.30;86.10;;;;;;4905182;28;87354;-79
2021/01/06 04:12:41;;;;;;;10.32;7.20;;;4.30;86.10;;;;;;4923069;28;86597;-79
2021/01/06 04:15:09;;;;;;;11.13;7.97;;;4.30;86.00;;;;;;4921857;28;88631;-78
2021/01/06 04:17:40;;;;;;;9.33;6.83;;;4.30;86.20;;;;;;4904428;28;91690;-78
2021/01/06 04:20:25;;;;;;;9.85;7.03;;;4.40;86.10;;;;;;4904104;28;87901;-78
2021/01/06 04:22:56;;;;;;;11.33;7.57;;;4.30;86.10;;;;;;4905109;28;88171;-79
2021/01/06 04:25:28;;;;;;;12.13;7.80;;;4.30;86.10;;;;;;4905174;28;88756;-78
2021/01/06 04:28:00;;;;;;;12.38;8.82;;;4.30;86.10;;;;;;4922401;28;88101;-78
2021/01/06 04:30:28;;;;;;;12.73;8.17;;;4.30;85.90;;;;;;4920970;28;87425;-79
2021/01/06 04:32:54;;;;;;;9.60;7.90;;;4.30;85.90;;;;;;4922633;28;87057;-79
2021/01/06 04:35:21;;;;;;;10.00;6.97;;;4.40;85.90;;;;;;4922693;28;88312;-78
2021/01/06 04:37:47;;;;;;;8.27;6.37;;;4.40;85.60;;;;;;4924462;28;91056;-78
2021/01/06 04:40:15;;;;;;;10.53;7.57;;;4.40;85.80;;;;;;4923912;28;87471;-78
2021/01/06 04:42:43;;;;;;;12.40;7.23;;;4.30;85.70;;;;;;4908421;28;87637;-79
2021/01/06 04:45:19;;;;;;;9.90;6.83;;;4.30;86.00;;;;;;4925014;28;89805;-78
2021/01/06 04:48:03;;;;;;;9.43;7.10;;;4.30;85.90;;;;;;4908304;28;92417;-79
2021/01/06 04:50:47;;;;;;;9.17;5.90;;;4.30;86.00;;;;;;4924916;28;86996;-79
2021/01/06 04:53:42;;;;;;;11.57;6.87;;;4.30;86.10;;;;;;4923680;28;86984;-78
2021/01/06 04:56:29;;;;;;;12.70;7.63;;;4.30;85.60;;;;;;4923358;28;91143;-78
2021/01/06 04:59:26;;;;;;;10.00;7.10;;;4.20;86.00;;;;;;4924428;28;91572;-78
2021/01/06 05:02:19;;;;;;;9.67;7.10;;;4.30;85.90;;;;;;4925544;28;87036;-78
2021/01/06 05:04:56;;;;;;;12.03;7.93;;;4.20;85.80;;;;;;4908501;28;87882;-78
2021/01/06 05:08:00;;;;;;;13.73;8.03;;;4.20;85.80;;;;;;4922742;28;88580;-79
2021/01/06 05:10:39;;;;;;;15.07;8.63;;;4.20;85.40;;;;;;4923941;28;86972;-78
2021/01/06 05:13:46;;;;;;;16.53;9.83;;;4.20;85.60;;;;;;4922972;28;87837;-78
2021/01/06 05:16:21;;;;;;;19.57;10.87;;;4.20;85.30;;;;;;4923218;28;88365;-78
2021/01/06 05:18:48;;;;;;;17.23;10.83;;;4.20;84.80;;;;;;4923538;28;91551;-79
2021/01/06 05:21:17;;;;;;;20.33;10.97;;;4.10;84.90;;;;;;4922800;28;90688;-78
2021/01/06 05:23:46;;;;;;;18.27;10.80;;;4.10;85.30;;;;;;4923817;28;86899;-78
2021/01/06 05:26:12;;;;;;;21.23;11.90;;;4.00;85.40;;;;;;4922560;28;87946;-79
2021/01/06 05:28:38;;;;;;;18.40;11.50;;;4.00;85.50;;;;;;4923823;28;91127;-79
2021/01/06 05:31:04;;;;;;;16.33;10.60;;;4.00;85.90;;;;;;4908076;28;91464;-78
2021/01/06 05:33:33;;;;;;;17.93;10.97;;;4.10;85.70;;;;;;4925544;28;86870;-78
2021/01/06 05:36:01;;;;;;;18.93;11.53;;;4.10;85.30;;;;;;4908235;28;87167;-80
2021/01/06 05:38:27;;;;;;;17.83;11.07;;;4.20;85.10;;;;;;4923834;28;88576;-79
2021/01/06 05:40:53;;;;;;;17.03;10.97;;;4.30;84.80;;;;;;4912038;28;91901;-80
2021/01/06 05:43:19;;;;;;;18.23;10.73;;;4.40;84.40;;;;;;4924016;28;87439;-79
2021/01/06 05:45:52;;;;;;;18.27;11.67;;;4.40;84.50;;;;;;4923708;28;87400;-79
2021/01/06 05:48:35;;;;;;;16.90;10.83;;;4.40;84.60;;;;;;4922418;28;90161;-78
2021/01/06 05:51:07;;;;;;;16.10;10.63;;;4.40;84.60;;;;;;4925212;28;87948;-79
2021/01/06 05:53:36;;;;;;;18.65;11.50;;;4.40;84.20;;;;;;4922797;28;86860;-79
2021/01/06 05:56:22;;;;;;;16.70;10.63;;;4.40;84.00;;;;;;4923014;28;88097;-79
2021/01/06 05:59:03;;;;;;;17.30;10.87;;;4.40;84.30;;;;;;4907201;28;91495;-79
2021/01/06 06:01:56;;;;;;;15.67;10.47;;;4.30;84.10;;;;;;4924188;28;86832;-79
2021/01/06 06:04:34;;;;;;;14.23;10.40;;;4.20;84.40;;;;;;4922518;28;87996;-78
2021/01/06 06:07:31;;;;;;;16.93;10.93;;;4.20;84.60;;;;;;4925446;28;87067;-79
2021/01/06 06:10:42;;;;;;;14.90;10.97;;;4.10;85.30;;;;;;4924206;28;88252;-78
2021/01/06 06:13:49;;;;;;;16.40;10.33;;;4.10;85.90;;;;;;4908289;28;91688;-79
2021/01/06 06:16:27;;;;;;;17.80;11.10;;;4.10;86.00;;;;;;4908687;28;86840;-78
2021/01/06 06:19:18;;;;;;;14.73;10.17;;;4.20;85.70;;;;;;4927189;28;86944;-79
2021/01/06 06:22:13;;;;;;;15.57;10.47;;;4.20;85.10;;;;;;4925521;28;91499;-78
2021/01/06 06:24:54;;;;;;;18.03;12.13;;;4.10;85.00;;;;;;4928526;28;86768;-79
2021/01/06 06:27:39;;;;;;;18.60;11.90;;;4.10;85.20;;;;;;4929546;28;87137;-79
2021/01/06 06:30:11;;;;;;;19.43;11.97;;;4.20;85.10;;;;;;4925963;28;87021;-79
2021/01/06 06:32:38;;;;;;;;;;;4.20;84.80;;;;;;4923176;28;89697;-79
2021/01/06 06:35:20;;;;;;;17.93;11.13;;;4.10;85.30;;;;;;4925108;28;88855;-79
2021/01/06 06:37:58;;;;;;;19.93;12.40;;;4.10;85.50;;;;;;4922765;28;87401;-78
2021/01/06 06:40:27;;;;;;;79.17;54.20;;;4.20;85.70;;;;;;4922026;28;86976;-78
2021/01/06 06:43:00;;;;;;;63.73;39.50;;;4.20;85.20;;;;;;4921789;28;90606;-78
2021/01/06 06:45:38;;;;;;;34.87;23.00;;;4.20;84.90;;;;;;4905266;28;91519;-78
2021/01/06 06:48:42;;;;;;;42.53;27.77;;;4.20;85.00;;;;;;4923794;28;87499;-79
2021/01/06 06:51:22;;;;;;;22.83;16.03;;;4.20;84.60;;;;;;4923631;28;86751;-79
2021/01/06 06:54:32;;;;;;;23.03;13.20;;;4.20;85.10;;;;;;4923926;28;86893;-79
2021/01/06 06:57:04;;;;;;;23.87;13.00;;;4.20;85.10;;;;;;4903560;28;88116;-79
2021/01/06 06:59:42;;;;;;;;;;;4.10;84.90;;;;;;4920049;28;87929;-78
2021/01/06 07:02:08;;;;;;;23.33;16.20;;;4.10;85.40;;;;;;4903864;28;88641;-79
2021/01/06 07:04:43;;;;;;;25.90;16.10;;;4.20;85.10;;;;;;4894010;28;91652;-78
2021/01/06 07:07:45;;;;;;;22.67;14.43;;;4.10;84.40;;;;;;4912631;28;87011;-78
2021/01/06 07:10:20;;;;;;;25.40;14.23;;;4.00;84.70;;;;;;4902102;28;87224;-78
2021/01/06 07:12:48;;;;;;;23.47;14.10;;;4.00;84.60;;;;;;4902372;28;88079;-79
2021/01/06 07:15:42;;;;;;;25.20;14.93;;;4.00;84.50;;;;;;4902750;28;88676;-78
2021/01/06 07:18:26;;;;;;;23.23;14.50;;;3.90;84.90;;;;;;4900033;28;88520;-78
2021/01/06 07:21:16;;;;;;;24.33;14.00;;;3.90;84.90;;;;;;4904027;28;86838;-78
2021/01/06 07:23:53;;;;;;;23.63;14.43;;;3.90;84.80;;;;;;4903402;28;86861;-78
2021/01/06 07:26:32;;;;;;;25.00;14.13;;;4.00;84.00;;;;;;4884531;28;92516;-78
2021/01/06 07:29:00;;;;;;;23.10;13.80;;;4.00;84.00;;;;;;4902524;28;89060;-79
2021/01/06 07:31:29;;;;;;;21.17;14.70;;;4.00;84.30;;;;;;4901571;28;87333;-79
2021/01/06 07:33:58;;;;;;;27.13;15.47;;;4.10;84.40;;;;;;4902210;28;88168;-79
2021/01/06 07:36:28;;;;;;;25.87;14.40;;;4.20;83.60;;;;;;4885143;28;91909;-79
2021/01/06 07:38:56;;;;;;;23.03;14.00;;;4.20;83.40;;;;;;4902133;28;90072;-79
2021/01/06 07:41:24;;;;;;;23.77;14.47;;;4.20;83.70;;;;;;4901654;28;87124;-78
2021/01/06 07:44:05;;;;;;;23.70;14.57;;;4.40;83.80;;;;;;4902980;28;86391;-79
2021/01/06 07:46:59;;;;;;;29.60;15.30;;;4.50;83.30;;;;;;4901429;28;90036;-79
2021/01/06 07:49:48;;;;;;;26.27;15.77;;;4.70;82.50;;;;;;4885997;28;91242;-79
2021/01/06 07:52:31;;;;;;;25.63;15.57;;;4.90;81.30;;;;;;4904969;28;88202;-79
2021/01/06 07:55:06;;;;;;;27.50;15.83;;;5.10;79.30;;;;;;4921863;28;87357;-79
2021/01/06 07:57:56;;;;;;;26.03;15.87;;;5.10;79.00;;;;;;4917406;28;90288;-78
2021/01/06 08:00:56;;;;;;;25.50;15.93;;;5.10;79.90;;;;;;4914272;28;88590;-81
2021/01/06 08:03:31;;;;;;;25.70;16.13;;;5.20;80.10;;;;;;4912307;28;87154;-79
2021/01/06 08:05:59;;;;;;;25.90;17.03;;;5.40;78.70;;;;;;4911792;28;87380;-79
2021/01/06 08:08:27;;;;;;;29.67;17.60;;;5.30;78.40;;;;;;4891654;28;91721;-78
2021/01/06 08:11:07;;;;;;;29.17;18.37;;;5.20;79.20;;;;;;4911320;28;91270;-79
2021/01/06 08:13:55;;;;;;;34.40;18.80;;;5.10;79.40;;;;;;4911018;28;87290;-79
2021/01/06 08:16:33;;;;;;;30.73;18.30;;;5.10;79.60;;;;;;4891869;28;88653;-78
2021/01/06 08:19:21;;;;;;;34.57;19.70;;;5.10;79.50;;;;;;4915326;28;92341;-79
2021/01/06 08:22:00;;;;;;;42.93;22.33;;;5.20;79.30;;;;;;4901250;28;91868;-80
2021/01/06 08:24:41;;;;;;;37.27;20.70;;;5.30;78.70;;;;;;4914848;28;87062;-80
2021/01/06 08:27:15;;;;;;;38.43;20.80;;;5.30;78.30;;;;;;4918086;28;87096;-80
2021/01/06 08:29:41;;;;;;;40.83;22.10;;;5.20;78.50;;;;;;4915625;28;87505;-79
2021/01/06 08:32:22;;;;;;;42.17;22.03;;;5.20;78.60;;;;;;4905827;28;91289;-79
2021/01/06 08:35:02;;;;;;;37.87;20.80;;;5.10;78.70;;;;;;4914336;28;87345;-79
2021/01/06 08:37:37;;;;;;;34.00;20.70;;;5.10;79.40;;;;;;4896271;28;87499;-80
2021/01/06 08:40:22;;;;;;;30.63;18.93;;;5.00;79.50;;;;;;4899682;28;91983;-78
2021/01/06 08:42:49;;;;;;;37.23;20.60;;;5.00;79.50;;;;;;4895882;28;91335;-77
2021/01/06 08:45:27;;;;;;;39.63;23.57;;;5.10;79.10;;;;;;4913330;28;88531;-78
2021/01/06 08:47:53;;;;;;;42.93;25.23;;;5.10;79.60;;;;;;4911465;28;87079;-78
2021/01/06 08:50:34;;;;;;;36.93;22.87;;;5.10;78.80;;;;;;4915135;28;91951;-78
2021/01/06 08:53:01;;;;;;;39.60;23.03;;;5.10;79.00;;;;;;4901835;28;91265;-77
2021/01/06 08:55:35;;;;;;;37.33;21.63;;;5.20;79.00;;;;;;4920199;28;87061;-79
2021/01/06 08:58:07;;;;;;;36.13;22.70;;;5.20;78.60;;;;;;4917952;28;87101;-78
2021/01/06 09:00:36;;;;;;;39.67;25.77;;;5.20;78.70;;;;;;4895053;28;88381;-78
2021/01/06 09:03:21;;;;;;;39.27;23.53;;;5.20;78.40;;;;;;4876240;28;91057;-78
2021/01/06 09:05:58;;;;;;;41.33;23.53;;;5.30;78.50;;;;;;4891077;28;87300;-78
2021/01/06 09:08:35;;;;;;;37.77;22.57;;;5.30;78.40;;;;;;4914389;28;87039;-78
2021/01/06 09:11:09;;;;;;;36.87;22.80;;;5.30;78.50;;;;;;4894496;28;92492;-78
2021/01/06 09:13:41;;;;;;;41.40;25.33;;;5.30;78.20;;;;;;4913496;28;88416;-78
2021/01/06 09:16:20;;;;;;;35.78;23.77;;;5.20;78.50;;;;;;4914045;28;87114;-78
2021/01/06 09:18:51;;;;;;;42.97;26.07;;;5.10;79.00;;;;;;4898578;28;87096;-78
2021/01/06 09:21:29;;;;;;;44.10;26.08;;;5.20;79.30;;;;;;4910549;28;87822;-78
2021/01/06 09:24:09;;;;;;;42.17;25.37;;;5.40;78.20;;;;;;4898628;28;91039;-78
2021/01/06 09:26:37;;;;;;;38.73;23.07;;;5.60;78.00;;;;;;4910634;28;87605;-77
2021/01/06 09:29:08;;;;;;;40.57;25.87;;;5.70;76.40;;;;;;4911804;28;87599;-78
2021/01/06 09:31:40;;;;;;;36.13;22.47;;;5.90;76.30;;;;;;4893983;28;92238;-78
2021/01/06 09:34:06;;;;;;;34.15;20.50;;;6.00;74.90;;;;;;4913560;28;91747;-77
2021/01/06 09:36:33;;;;;;;38.03;21.53;;;6.00;75.30;;;;;;4912805;28;88558;-79
2021/01/06 09:39:01;;;;;;;42.00;22.93;;;6.20;75.30;;;;;;4894763;28;88079;-78
2021/01/06 09:41:32;;;;;;;39.27;24.17;;;6.30;74.00;;;;;;4897319;28;92050;-78
2021/01/06 09:44:02;;;;;;;40.30;23.10;;;6.40;73.50;;;;;;4912082;28;91241;-79
2021/01/06 09:46:28;;;;;;;35.93;23.60;;;6.40;74.20;;;;;;4911669;28;87071;-78
2021/01/06 09:48:58;;;;;;;48.73;29.17;;;6.40;73.80;;;;;;4913057;28;87989;-78
2021/01/06 09:51:25;;;;;;;38.27;24.27;;;6.40;73.80;;;;;;4896597;28;91847;-78
2021/01/06 09:53:54;;;;;;;44.00;25.20;;;6.30;73.90;;;;;;4915586;28;91232;-78
2021/01/06 09:56:24;;;;;;;39.10;23.00;;;6.00;74.30;;;;;;4904022;28;87196;-79
2021/01/06 09:58:50;;;;;;;39.83;22.57;;;5.70;74.80;;;;;;4917922;28;87074;-78
2021/01/06 10:01:23;;;;;;;42.90;24.23;;;5.50;76.10;;;;;;4914768;28;93111;-78
2021/01/06 10:03:51;;;;;;;45.47;24.13;;;5.20;78.00;;;;;;4892711;28;92254;-78
2021/01/06 10:06:35;;;;;;;36.97;22.90;;;5.20;78.80;;;;;;4898628;28;87555;-77
2021/01/06 10:09:25;;;;;;;36.27;21.87;;;5.00;79.50;;;;;;4896241;28;88226;-78
2021/01/06 10:11:57;;;;;;;41.10;22.97;;;5.00;79.80;;;;;;4916807;28;88821;-78
2021/01/06 10:14:36;;;;;;;38.13;21.77;;;5.00;79.20;;;;;;4901234;28;91472;-77
2021/01/06 10:17:11;;;;;;;36.77;22.93;;;5.00;80.00;;;;;;4922019;28;87085;-78
2021/01/06 10:19:47;;;;;;;39.27;22.77;;;5.00;79.80;;;;;;4922296;28;87639;-78
2021/01/06 10:22:52;;;;;;;41.93;22.97;;;5.00;79.60;;;;;;4925257;28;91609;-79
2021/01/06 10:25:37;;;;;;;38.43;22.00;;;5.10;79.80;;;;;;4920069;28;88678;-77
2021/01/06 10:28:10;;;;;;;36.07;21.87;;;5.10;80.00;;;;;;4918171;28;88474;-78
2021/01/06 10:30:36;;;;;;;37.77;21.03;;;5.20;79.70;;;;;;4913790;28;88136;-78
2021/01/06 10:33:31;;;;;;;35.83;21.00;;;5.10;79.10;;;;;;4913740;28;91347;-78
2021/01/06 10:36:03;;;;;;;37.97;21.47;;;5.10;79.30;;;;;;4914145;28;89848;-79
2021/01/06 10:38:46;;;;;;;36.97;23.10;;;5.10;79.60;;;;;;4914765;28;87105;-78
2021/01/06 10:41:25;;;;;;;51.80;31.03;;;5.20;79.30;;;;;;4921194;28;87025;-78
2021/01/06 10:43:55;;;;;;;32.33;19.97;;;5.30;79.00;;;;;;4912106;28;87704;-78
2021/01/06 10:46:45;;;;;;;36.27;22.70;;;5.40;78.20;;;;;;4921379;28;87834;-79
2021/01/06 10:49:33;;;;;;;35.77;22.00;;;5.40;78.00;;;;;;4920198;28;87058;-79
2021/01/06 10:52:08;;;;;;;38.47;21.20;;;5.50;77.10;;;;;;4890622;28;88754;-78
2021/01/06 10:54:52;;;;;;;41.83;25.17;;;5.30;77.40;;;;;;4918485;28;91852;-78
2021/01/06 10:57:45;;;;;;;41.10;25.80;;;5.40;77.40;;;;;;4900033;28;91930;-78
2021/01/06 11:00:19;;;;;;;39.10;24.20;;;5.40;77.80;;;;;;4920118;28;87217;-78
2021/01/06 11:03:09;;;;;;;42.07;24.00;;;5.50;78.00;;;;;;4920655;28;87029;-78
2021/01/06 11:05:55;;;;;;;43.03;26.67;;;5.60;77.40;;;;;;4920156;28;88024;-77
2021/01/06 11:08:41;;;;;;;42.93;25.87;;;5.60;76.80;;;;;;4919159;28;90700;-78
2021/01/06 11:11:32;;;;;;;40.80;25.07;;;5.60;76.40;;;;;;4920045;28;87432;-78
2021/01/06 11:14:07;;;;;;;36.90;23.50;;;5.60;76.10;;;;;;4903961;28;88845;-78
2021/01/06 11:16:45;;;;;;;39.13;25.30;;;5.50;76.30;;;;;;4919329;28;89910;-76
2021/01/06 11:19:50;;;;;;;47.37;28.30;;;5.40;77.10;;;;;;4919556;28;90275;-78
2021/01/06 11:22:43;;;;;;;50.83;30.40;;;5.40;78.00;;;;;;4918778;28;88383;-78
2021/01/06 11:25:27;;;;;;;59.30;33.23;;;5.50;77.90;;;;;;4919795;28;87808;-78
2021/01/06 11:28:32;;;;;;;51.17;30.67;;;5.50;76.80;;;;;;4900527;28;90078;-78
2021/01/06 11:31:22;;;;;;;50.60;29.63;;;5.40;77.30;;;;;;4881064;28;89448;-78
2021/01/06 11:33:56;;;;;;;48.47;28.70;;;5.40;77.70;;;;;;4918629;28;87138;-77
2021/01/06 11:36:29;;;;;;;51.77;30.87;;;5.40;77.00;;;;;;4899039;28;87888;-78
2021/01/06 11:38:58;;;;;;;43.57;26.70;;;5.40;77.30;;;;;;4900534;28;92226;-78
2021/01/06 11:41:27;;;;;;;44.93;25.27;;;5.40;76.40;;;;;;4900805;28;91507;-79
2021/01/06 11:43:59;;;;;;;44.30;27.30;;;5.40;76.10;;;;;;4915434;28;87311;-78
2021/01/06 11:46:52;;;;;;;46.05;26.83;;;5.40;76.50;;;;;;4893909;28;88598;-77
2021/01/06 11:49:30;;;;;;;51.37;27.80;;;5.40;76.50;;;;;;4915729;28;89200;-78
2021/01/06 11:52:24;;;;;;;48.33;28.40;;;5.50;76.50;;;;;;4885569;28;91023;-78
2021/01/06 11:55:06;;;;;;;46.97;28.43;;;5.50;76.00;;;;;;4900738;28;87754;-79
2021/01/06 11:57:51;;;;;;;;;;;5.40;76.30;;;;;;4902975;28;87079;-78
2021/01/06 12:00:42;;;;;;;48.93;27.27;;;5.40;76.40;;;;;;4888444;28;89145;-79
2021/01/06 12:03:07;;;;;;;50.47;31.30;;;5.40;76.50;;;;;;4921353;28;87705;-80
2021/01/06 12:05:39;;;;;;;51.77;30.60;;;5.30;77.60;;;;;;4903990;28;87127;-80
2021/01/06 12:08:21;;;;;;;;;;;5.20;77.20;;;;;;4905688;28;86289;-80
2021/01/06 12:11:03;;;;;;;49.65;31.55;;;5.20;78.30;;;;;;4904699;28;91724;-79
2021/01/06 12:13:54;;;;;;;47.85;28.35;;;5.20;77.90;;;;;;4903790;28;88148;-79
2021/01/06 12:16:38;;;;;;;43.08;27.30;;;5.10;78.50;;;;;;4887243;28;88393;-77
2021/01/06 12:19:07;;;;;;;42.17;26.10;;;5.10;78.40;;;;;;4885547;28;87779;-78
2021/01/06 12:21:36;;;;;;;48.83;28.13;;;5.10;78.50;;;;;;4901996;28;87951;-78
2021/01/06 12:24:22;;;;;;;54.77;32.77;;;5.10;78.00;;;;;;4902899;28;90761;-77
2021/01/06 12:27:23;;;;;;;51.93;30.27;;;5.20;78.40;;;;;;4898206;28;87296;-78
2021/01/06 12:29:51;;;;;;;49.60;31.10;;;5.30;78.40;;;;;;4903424;28;88155;-78
2021/01/06 12:32:34;;;;;;;51.90;30.60;;;5.30;78.40;;;;;;4903668;28;90226;-79
2021/01/06 12:35:28;;;;;;;50.40;30.43;;;5.40;78.70;;;;;;4918936;28;88450;-78
2021/01/06 12:37:57;;;;;;;53.93;31.63;;;5.40;78.40;;;;;;4913391;28;87196;-78
2021/01/06 12:40:24;;;;;;;48.83;30.20;;;5.50;78.00;;;;;;4920203;28;87206;-78
2021/01/06 12:42:57;;;;;;;51.13;29.77;;;5.50;78.40;;;;;;4905430;28;92734;-80
2021/01/06 12:45:32;;;;;;;55.13;32.40;;;5.50;78.40;;;;;;4923989;28;88599;-78
2021/01/06 12:48:06;;;;;;;68.27;37.17;;;5.50;78.50;;;;;;4918821;28;87587;-79
2021/01/06 12:50:54;;;;;;;55.50;32.50;;;5.50;78.90;;;;;;4910644;28;88011;-78
2021/01/06 12:53:28;;;;;;;55.77;32.40;;;5.50;79.10;;;;;;4900451;28;88367;-79
2021/01/06 12:56:10;;;;;;;57.20;32.07;;;5.50;79.00;;;;;;4899739;28;90579;-78
2021/01/06 12:58:45;;;;;;;47.80;28.33;;;5.50;79.00;;;;;;4886557;28;87126;-79
2021/01/06 13:01:20;;;;;;;45.53;28.07;;;5.50;79.30;;;;;;4898020;28;86563;-79
2021/01/06 13:03:51;;;;;;;50.10;29.20;;;5.50;79.90;;;;;;4924166;28;88819;-79
2021/01/06 13:06:55;;;;;;;56.72;32.53;;;5.60;79.90;;;;;;4901711;28;90234;-78
2021/01/06 13:09:33;;;;;;;49.70;29.00;;;5.60;80.00;;;;;;4901294;28;88269;-79
2021/01/06 13:12:11;;;;;;;41.90;26.63;;;5.60;79.80;;;;;;4899566;28;88059;-78
2021/01/06 13:15:00;;;;;;;49.50;29.07;;;5.70;79.70;;;;;;4911976;28;90618;-78
2021/01/06 13:17:30;;;;;;;46.50;28.50;;;5.70;79.50;;;;;;4912998;28;91803;-78
2021/01/06 13:19:59;;;;;;;47.90;30.17;;;5.70;79.60;;;;;;4917498;28;87601;-79
2021/01/06 13:22:32;;;;;;;46.60;27.57;;;5.70;79.60;;;;;;4916143;28;88304;-78
2021/01/06 13:25:08;;;;;;;42.00;27.00;;;5.70;78.80;;;;;;4916952;28;90117;-79
2021/01/06 13:27:53;;;;;;;43.50;26.37;;;5.70;79.00;;;;;;4906215;28;87981;-79
2021/01/06 13:30:28;;;;;;;37.87;23.10;;;5.70;79.40;;;;;;4886127;28;87189;-79